sensor_id;sensor_type;location;lat;lon;timestamp;pressure;altitude;pressure_sealevel;temperature
10598;BMP180;5346;48.766;8.674;2022-11-14T00:00:46;93856.00;;;0.50
10598;BMP180;5346;48.766;8.674;2022-11-14T00:03:13;93856.00;;;0.50
10598;BMP180;5346;48.766;8.674;2022-11-14T00:05:43;93860.00;;;0.40
10598;BMP180;5346;48.766;8.674;2022-11-14T00:08:24;93844.00;;;0.40
10598;BMP180;5346;48.766;8.674;2022-11-14T00:10:52;93844.00;;;0.30
10598;BMP180;5346;48.766;8.674;2022-11-14T00:13:26;93845.00;;;0.10
10598;BMP180;5346;48.766;8.674;2022-11-14T00:15:53;93844.00;;;0.00
10598;BMP180;5346;48.766;8.674;2022-11-14T00:18:21;93851.00;;;-0.20
10598;BMP180;5346;48.766;8.674;2022-11-14T00:20:56;93852.00;;;-0.30
10598;BMP180;5346;48.766;8.674;2022-11-14T00:23:24;93864.00;;;-0.20
10598;BMP180;5346;48.766;8.674;2022-11-14T00:25:51;93863.00;;;-0.20
10598;BMP180;5346;48.766;8.674;2022-11-14T00:28:26;93855.00;;;-0.20
10598;BMP180;5346;48.766;8.674;2022-11-14T00:30:54;93856.00;;;-0.20
10598;BMP180;5346;48.766;8.674;2022-11-14T00:33:21;93860.00;;;-0.20
10598;BMP180;5346;48.766;8.674;2022-11-14T00:35:55;93862.00;;;-0.20
10598;BMP180;5346;48.766;8.674;2022-11-14T00:38:23;93862.00;;;-0.30
10598;BMP180;5346;48.766;8.674;2022-11-14T00:40:50;93866.00;;;-0.40
10598;BMP180;5346;48.766;8.674;2022-11-14T00:43:25;93865.00;;;-0.40
10598;BMP180;5346;48.766;8.674;2022-11-14T00:45:52;93868.00;;;-0.30
10598;BMP180;5346;48.766;8.674;2022-11-14T00:48:20;93861.00;;;-0.30
10598;BMP180;5346;48.766;8.674;2022-11-14T00:50:54;93865.00;;;-0.30
10598;BMP180;5346;48.766;8.674;2022-11-14T00:53:22;93861.00;;;-0.20
10598;BMP180;5346;48.766;8.674;2022-11-14T00:55:49;93860.00;;;-0.10
10598;BMP180;5346;48.766;8.674;2022-11-14T00:58:23;93849.00;;;-0.10
10598;BMP180;5346;48.766;8.674;2022-11-14T01:00:51;93844.00;;;-0.10
10598;BMP180;5346;48.766;8.674;2022-11-14T01:03:19;93852.00;;;0.00
10598;BMP180;5346;48.766;8.674;2022-11-14T01:05:53;93850.00;;;0.00
10598;BMP180;5346;48.766;8.674;2022-11-14T01:08:34;93846.00;;;-0.10
10598;BMP180;5346;48.766;8.674;2022-11-14T01:11:10;93843.00;;;-0.20
10598;BMP180;5346;48.766;8.674;2022-11-14T01:13:38;93829.00;;;-0.20
10598;BMP180;5346;48.766;8.674;2022-11-14T01:16:06;93822.00;;;-0.30
10598;BMP180;5346;48.766;8.674;2022-11-14T01:18:40;93818.00;;;-0.10
10598;BMP180;5346;48.766;8.674;2022-11-14T01:21:09;93827.00;;;-0.10
10598;BMP180;5346;48.766;8.674;2022-11-14T01:23:38;93832.00;;;0.00
10598;BMP180;5346;48.766;8.674;2022-11-14T01:26:13;93833.00;;;0.00
10598;BMP180;5346;48.766;8.674;2022-11-14T01:28:40;93823.00;;;0.20
10598;BMP180;5346;48.766;8.674;2022-11-14T01:31:19;93827.00;;;0.20
10598;BMP180;5346;48.766;8.674;2022-11-14T01:33:54;93819.00;;;0.10
10598;BMP180;5346;48.766;8.674;2022-11-14T01:36:21;93815.00;;;0.10
10598;BMP180;5346;48.766;8.674;2022-11-14T01:38:53;93813.00;;;0.10
10598;BMP180;5346;48.766;8.674;2022-11-14T01:41:27;93805.00;;;0.00
10598;BMP180;5346;48.766;8.674;2022-11-14T01:43:54;93798.00;;;0.00
10598;BMP180;5346;48.766;8.674;2022-11-14T01:46:25;93790.00;;;0.20
10598;BMP180;5346;48.766;8.674;2022-11-14T01:54:25;93782.00;;;0.80
10598;BMP180;5346;48.766;8.674;2022-11-14T01:56:59;93778.00;;;1.00
10598;BMP180;5346;48.766;8.674;2022-11-14T01:59:37;93786.00;;;1.10
10598;BMP180;5346;48.766;8.674;2022-11-14T02:02:13;93772.00;;;1.20
10598;BMP180;5346;48.766;8.674;2022-11-14T02:04:58;93769.00;;;1.30
10598;BMP180;5346;48.766;8.674;2022-11-14T02:07:40;93771.00;;;1.40
10598;BMP180;5346;48.766;8.674;2022-11-14T02:10:20;93764.00;;;1.50
10598;BMP180;5346;48.766;8.674;2022-11-14T02:12:48;93759.00;;;1.20
10598;BMP180;5346;48.766;8.674;2022-11-14T02:15:23;93758.00;;;1.10
10598;BMP180;5346;48.766;8.674;2022-11-14T02:17:52;93754.00;;;0.90
10598;BMP180;5346;48.766;8.674;2022-11-14T02:20:28;93750.00;;;0.90
10598;BMP180;5346;48.766;8.674;2022-11-14T02:23:02;93750.00;;;0.90
10598;BMP180;5346;48.766;8.674;2022-11-14T02:25:29;93757.00;;;0.80
10598;BMP180;5346;48.766;8.674;2022-11-14T02:27:58;93764.00;;;0.90
10598;BMP180;5346;48.766;8.674;2022-11-14T02:30:36;93760.00;;;0.60
10598;BMP180;5346;48.766;8.674;2022-11-14T02:33:03;93762.00;;;0.40
10598;BMP180;5346;48.766;8.674;2022-11-14T02:35:38;93764.00;;;0.20
10598;BMP180;5346;48.766;8.674;2022-11-14T02:38:13;93763.00;;;0.10
10598;BMP180;5346;48.766;8.674;2022-11-14T02:40:41;93778.00;;;0.20
10598;BMP180;5346;48.766;8.674;2022-11-14T02:43:08;93774.00;;;0.20
10598;BMP180;5346;48.766;8.674;2022-11-14T02:45:42;93772.00;;;0.10
10598;BMP180;5346;48.766;8.674;2022-11-14T02:48:10;93775.00;;;-0.10
10598;BMP180;5346;48.766;8.674;2022-11-14T02:50:37;93772.00;;;-0.20
10598;BMP180;5346;48.766;8.674;2022-11-14T02:53:11;93775.00;;;-0.20
10598;BMP180;5346;48.766;8.674;2022-11-14T02:55:38;93781.00;;;-0.40
10598;BMP180;5346;48.766;8.674;2022-11-14T02:58:06;93778.00;;;-0.10
10598;BMP180;5346;48.766;8.674;2022-11-14T03:00:40;93775.00;;;0.00
10598;BMP180;5346;48.766;8.674;2022-11-14T03:03:27;93772.00;;;0.00
10598;BMP180;5346;48.766;8.674;2022-11-14T03:06:02;93763.00;;;-0.10
10598;BMP180;5346;48.766;8.674;2022-11-14T03:08:36;93762.00;;;0.10
10598;BMP180;5346;48.766;8.674;2022-11-14T03:11:10;93760.00;;;0.10
10598;BMP180;5346;48.766;8.674;2022-11-14T03:13:37;93766.00;;;0.30
10598;BMP180;5346;48.766;8.674;2022-11-14T03:16:09;93763.00;;;0.70
10598;BMP180;5346;48.766;8.674;2022-11-14T03:18:44;93771.00;;;0.50
10598;BMP180;5346;48.766;8.674;2022-11-14T03:21:14;93774.00;;;0.30
10598;BMP180;5346;48.766;8.674;2022-11-14T03:23:42;93772.00;;;0.00
10598;BMP180;5346;48.766;8.674;2022-11-14T03:26:17;93773.00;;;-0.30
10598;BMP180;5346;48.766;8.674;2022-11-14T03:28:45;93787.00;;;-0.30
10598;BMP180;5346;48.766;8.674;2022-11-14T03:31:13;93769.00;;;-0.40
10598;BMP180;5346;48.766;8.674;2022-11-14T03:33:48;93756.00;;;0.20
10598;BMP180;5346;48.766;8.674;2022-11-14T03:36:15;93769.00;;;0.60
10598;BMP180;5346;48.766;8.674;2022-11-14T03:38:43;93759.00;;;0.60
10598;BMP180;5346;48.766;8.674;2022-11-14T03:41:17;93761.00;;;0.40
10598;BMP180;5346;48.766;8.674;2022-11-14T03:43:45;93755.00;;;0.30
10598;BMP180;5346;48.766;8.674;2022-11-14T03:46:13;93757.00;;;0.30
10598;BMP180;5346;48.766;8.674;2022-11-14T03:48:47;93757.00;;;0.50
10598;BMP180;5346;48.766;8.674;2022-11-14T03:51:14;93748.00;;;0.60
10598;BMP180;5346;48.766;8.674;2022-11-14T03:53:42;93751.00;;;0.90
10598;BMP180;5346;48.766;8.674;2022-11-14T03:56:16;93740.00;;;1.40
10598;BMP180;5346;48.766;8.674;2022-11-14T03:58:43;93739.00;;;1.90
10598;BMP180;5346;48.766;8.674;2022-11-14T04:01:11;93732.00;;;2.10
10598;BMP180;5346;48.766;8.674;2022-11-14T04:03:45;93744.00;;;2.40
10598;BMP180;5346;48.766;8.674;2022-11-14T04:06:19;93739.00;;;2.70
10598;BMP180;5346;48.766;8.674;2022-11-14T04:09:00;93734.00;;;3.20
10598;BMP180;5346;48.766;8.674;2022-11-14T04:11:27;93734.00;;;3.30
10598;BMP180;5346;48.766;8.674;2022-11-14T04:13:55;93741.00;;;3.40
10598;BMP180;5346;48.766;8.674;2022-11-14T04:16:29;93731.00;;;3.60
10598;BMP180;5346;48.766;8.674;2022-11-14T04:18:56;93743.00;;;3.70
10598;BMP180;5346;48.766;8.674;2022-11-14T04:21:24;93741.00;;;3.70
10598;BMP180;5346;48.766;8.674;2022-11-14T04:23:58;93727.00;;;3.90
10598;BMP180;5346;48.766;8.674;2022-11-14T04:26:25;93735.00;;;4.00
10598;BMP180;5346;48.766;8.674;2022-11-14T04:28:53;93740.00;;;4.00
10598;BMP180;5346;48.766;8.674;2022-11-14T04:31:35;93750.00;;;3.80
10598;BMP180;5346;48.766;8.674;2022-11-14T04:34:02;93741.00;;;3.00
10598;BMP180;5346;48.766;8.674;2022-11-14T04:36:37;93739.00;;;2.30
10598;BMP180;5346;48.766;8.674;2022-11-14T04:39:05;93746.00;;;1.90
10598;BMP180;5346;48.766;8.674;2022-11-14T04:41:32;93748.00;;;1.60
10598;BMP180;5346;48.766;8.674;2022-11-14T04:44:06;93740.00;;;1.30
10598;BMP180;5346;48.766;8.674;2022-11-14T04:46:33;93744.00;;;1.20
10598;BMP180;5346;48.766;8.674;2022-11-14T04:49:01;93739.00;;;1.20
10598;BMP180;5346;48.766;8.674;2022-11-14T04:51:35;93738.00;;;1.10
10598;BMP180;5346;48.766;8.674;2022-11-14T04:54:02;93734.00;;;1.10
10598;BMP180;5346;48.766;8.674;2022-11-14T04:56:30;93731.00;;;1.20
10598;BMP180;5346;48.766;8.674;2022-11-14T04:59:04;93739.00;;;1.50
10598;BMP180;5346;48.766;8.674;2022-11-14T05:01:31;93736.00;;;1.60
10598;BMP180;5346;48.766;8.674;2022-11-14T05:03:59;93741.00;;;1.60
10598;BMP180;5346;48.766;8.674;2022-11-14T05:06:33;93726.00;;;1.50
10598;BMP180;5346;48.766;8.674;2022-11-14T05:09:07;93719.00;;;1.80
10598;BMP180;5346;48.766;8.674;2022-11-14T05:11:42;93722.00;;;1.80
10598;BMP180;5346;48.766;8.674;2022-11-14T05:14:09;93699.00;;;1.70
10598;BMP180;5346;48.766;8.674;2022-11-14T05:16:37;93702.00;;;1.90
10598;BMP180;5346;48.766;8.674;2022-11-14T05:19:11;93701.00;;;1.70
10598;BMP180;5346;48.766;8.674;2022-11-14T05:21:38;93711.00;;;1.20
10598;BMP180;5346;48.766;8.674;2022-11-14T05:24:06;93710.00;;;1.20
10598;BMP180;5346;48.766;8.674;2022-11-14T05:26:48;93720.00;;;0.80
10598;BMP180;5346;48.766;8.674;2022-11-14T05:29:16;93713.00;;;0.60
10598;BMP180;5346;48.766;8.674;2022-11-14T05:31:43;93709.00;;;0.60
10598;BMP180;5346;48.766;8.674;2022-11-14T05:34:20;93715.00;;;0.60
10598;BMP180;5346;48.766;8.674;2022-11-14T05:36:47;93719.00;;;0.90
10598;BMP180;5346;48.766;8.674;2022-11-14T05:39:15;93714.00;;;1.00
10598;BMP180;5346;48.766;8.674;2022-11-14T05:41:50;93708.00;;;1.00
10598;BMP180;5346;48.766;8.674;2022-11-14T05:44:17;93712.00;;;1.10
10598;BMP180;5346;48.766;8.674;2022-11-14T05:46:44;93700.00;;;1.30
10598;BMP180;5346;48.766;8.674;2022-11-14T05:49:19;93695.00;;;1.40
10598;BMP180;5346;48.766;8.674;2022-11-14T05:51:48;93703.00;;;1.50
10598;BMP180;5346;48.766;8.674;2022-11-14T05:54:15;93716.00;;;0.90
10598;BMP180;5346;48.766;8.674;2022-11-14T05:56:49;93699.00;;;0.60
10598;BMP180;5346;48.766;8.674;2022-11-14T05:59:16;93696.00;;;0.70
10598;BMP180;5346;48.766;8.674;2022-11-14T06:01:48;93700.00;;;1.00
10598;BMP180;5346;48.766;8.674;2022-11-14T06:04:22;93692.00;;;1.20
10598;BMP180;5346;48.766;8.674;2022-11-14T06:06:57;93699.00;;;1.40
10598;BMP180;5346;48.766;8.674;2022-11-14T06:09:45;93704.00;;;1.70
10598;BMP180;5346;48.766;8.674;2022-11-14T06:12:13;93700.00;;;1.50
10598;BMP180;5346;48.766;8.674;2022-11-14T06:14:50;93696.00;;;1.50
10598;BMP180;5346;48.766;8.674;2022-11-14T06:17:24;93705.00;;;1.50
10598;BMP180;5346;48.766;8.674;2022-11-14T06:19:57;93700.00;;;1.50
10598;BMP180;5346;48.766;8.674;2022-11-14T06:22:27;93710.00;;;1.50
10598;BMP180;5346;48.766;8.674;2022-11-14T06:24:55;93707.00;;;1.80
10598;BMP180;5346;48.766;8.674;2022-11-14T06:27:28;93711.00;;;2.00
10598;BMP180;5346;48.766;8.674;2022-11-14T06:29:56;93714.00;;;2.00
10598;BMP180;5346;48.766;8.674;2022-11-14T06:32:23;93726.00;;;2.30
10598;BMP180;5346;48.766;8.674;2022-11-14T06:34:59;93730.00;;;2.20
10598;BMP180;5346;48.766;8.674;2022-11-14T06:37:29;93719.00;;;2.00
10598;BMP180;5346;48.766;8.674;2022-11-14T06:40:00;93735.00;;;2.00
10598;BMP180;5346;48.766;8.674;2022-11-14T06:42:35;93734.00;;;2.00
10598;BMP180;5346;48.766;8.674;2022-11-14T06:45:03;93734.00;;;2.00
10598;BMP180;5346;48.766;8.674;2022-11-14T06:47:31;93744.00;;;2.00
10598;BMP180;5346;48.766;8.674;2022-11-14T06:50:05;93747.00;;;2.00
10598;BMP180;5346;48.766;8.674;2022-11-14T06:52:35;93755.00;;;2.20
10598;BMP180;5346;48.766;8.674;2022-11-14T06:55:05;93752.00;;;2.20
10598;BMP180;5346;48.766;8.674;2022-11-14T06:57:42;93757.00;;;2.40
10598;BMP180;5346;48.766;8.674;2022-11-14T07:00:10;93754.00;;;2.50
10598;BMP180;5346;48.766;8.674;2022-11-14T07:02:38;93749.00;;;2.60
10598;BMP180;5346;48.766;8.674;2022-11-14T07:05:21;93750.00;;;2.70
10598;BMP180;5346;48.766;8.674;2022-11-14T07:08:01;93749.00;;;2.80
10598;BMP180;5346;48.766;8.674;2022-11-14T07:10:35;93764.00;;;3.00
10598;BMP180;5346;48.766;8.674;2022-11-14T07:13:03;93754.00;;;3.10
10598;BMP180;5346;48.766;8.674;2022-11-14T07:15:31;93759.00;;;3.20
10598;BMP180;5346;48.766;8.674;2022-11-14T07:18:05;93758.00;;;3.40
10598;BMP180;5346;48.766;8.674;2022-11-14T07:20:32;93761.00;;;3.70
10598;BMP180;5346;48.766;8.674;2022-11-14T07:23:00;93759.00;;;3.90
10598;BMP180;5346;48.766;8.674;2022-11-14T07:25:33;93752.00;;;4.10
10598;BMP180;5346;48.766;8.674;2022-11-14T07:28:01;93757.00;;;4.40
10598;BMP180;5346;48.766;8.674;2022-11-14T07:30:28;93747.00;;;4.50
10598;BMP180;5346;48.766;8.674;2022-11-14T07:33:02;93750.00;;;4.60
10598;BMP180;5346;48.766;8.674;2022-11-14T07:35:30;93748.00;;;4.80
10598;BMP180;5346;48.766;8.674;2022-11-14T07:38:04;93751.00;;;4.90
10598;BMP180;5346;48.766;8.674;2022-11-14T07:40:37;93754.00;;;5.00
10598;BMP180;5346;48.766;8.674;2022-11-14T07:43:05;93746.00;;;5.10
10598;BMP180;5346;48.766;8.674;2022-11-14T07:45:33;93745.00;;;5.00
10598;BMP180;5346;48.766;8.674;2022-11-14T07:48:06;93750.00;;;5.20
10598;BMP180;5346;48.766;8.674;2022-11-14T07:50:36;93757.00;;;5.30
10598;BMP180;5346;48.766;8.674;2022-11-14T07:53:03;93766.00;;;5.30
10598;BMP180;5346;48.766;8.674;2022-11-14T07:55:38;93757.00;;;5.30
10598;BMP180;5346;48.766;8.674;2022-11-14T07:58:06;93768.00;;;5.40
10598;BMP180;5346;48.766;8.674;2022-11-14T08:00:33;93773.00;;;5.50
10598;BMP180;5346;48.766;8.674;2022-11-14T08:03:08;93781.00;;;5.60
10598;BMP180;5346;48.766;8.674;2022-11-14T08:05:42;93777.00;;;5.60
10598;BMP180;5346;48.766;8.674;2022-11-14T08:08:23;93770.00;;;5.80
10598;BMP180;5346;48.766;8.674;2022-11-14T08:10:54;93772.00;;;5.90
10598;BMP180;5346;48.766;8.674;2022-11-14T08:13:22;93773.00;;;5.90
10598;BMP180;5346;48.766;8.674;2022-11-14T08:16:05;93776.00;;;6.00
10598;BMP180;5346;48.766;8.674;2022-11-14T08:18:40;93782.00;;;6.00
10598;BMP180;5346;48.766;8.674;2022-11-14T08:21:15;93780.00;;;6.00
10598;BMP180;5346;48.766;8.674;2022-11-14T08:23:43;93781.00;;;6.20
10598;BMP180;5346;48.766;8.674;2022-11-14T08:26:11;93781.00;;;6.10
10598;BMP180;5346;48.766;8.674;2022-11-14T08:28:45;93798.00;;;6.10
10598;BMP180;5346;48.766;8.674;2022-11-14T08:31:13;93781.00;;;6.10
10598;BMP180;5346;48.766;8.674;2022-11-14T08:33:41;93785.00;;;6.20
10598;BMP180;5346;48.766;8.674;2022-11-14T08:36:14;93787.00;;;6.20
10598;BMP180;5346;48.766;8.674;2022-11-14T08:38:42;93788.00;;;6.20
10598;BMP180;5346;48.766;8.674;2022-11-14T08:41:10;93795.00;;;6.20
10598;BMP180;5346;48.766;8.674;2022-11-14T08:43:43;93796.00;;;6.20
10598;BMP180;5346;48.766;8.674;2022-11-14T08:46:11;93801.00;;;6.10
10598;BMP180;5346;48.766;8.674;2022-11-14T08:48:38;93804.00;;;6.20
10598;BMP180;5346;48.766;8.674;2022-11-14T08:51:16;93802.00;;;6.10
10598;BMP180;5346;48.766;8.674;2022-11-14T08:53:44;93803.00;;;6.20
10598;BMP180;5346;48.766;8.674;2022-11-14T08:56:12;93807.00;;;6.10
10598;BMP180;5346;48.766;8.674;2022-11-14T08:58:46;93813.00;;;6.10
10598;BMP180;5346;48.766;8.674;2022-11-14T09:01:16;93801.00;;;6.20
10598;BMP180;5346;48.766;8.674;2022-11-14T09:03:45;93813.00;;;6.30
10598;BMP180;5346;48.766;8.674;2022-11-14T09:06:33;93809.00;;;6.40
10598;BMP180;5346;48.766;8.674;2022-11-14T09:09:07;93813.00;;;6.40
10598;BMP180;5346;48.766;8.674;2022-11-14T09:11:43;93815.00;;;6.50
10598;BMP180;5346;48.766;8.674;2022-11-14T09:14:13;93810.00;;;6.50
10598;BMP180;5346;48.766;8.674;2022-11-14T09:16:40;93820.00;;;6.50
10598;BMP180;5346;48.766;8.674;2022-11-14T09:19:15;93828.00;;;6.70
10598;BMP180;5346;48.766;8.674;2022-11-14T09:21:42;93817.00;;;6.60
10598;BMP180;5346;48.766;8.674;2022-11-14T09:24:12;93818.00;;;6.80
10598;BMP180;5346;48.766;8.674;2022-11-14T09:26:51;93808.00;;;6.70
10598;BMP180;5346;48.766;8.674;2022-11-14T09:29:23;93816.00;;;6.80
10598;BMP180;5346;48.766;8.674;2022-11-14T09:31:56;93812.00;;;6.80
10598;BMP180;5346;48.766;8.674;2022-11-14T09:34:25;93814.00;;;7.00
10598;BMP180;5346;48.766;8.674;2022-11-14T09:36:52;93815.00;;;6.90
10598;BMP180;5346;48.766;8.674;2022-11-14T09:39:32;93812.00;;;6.90
10598;BMP180;5346;48.766;8.674;2022-11-14T09:44:48;93806.00;;;6.90
10598;BMP180;5346;48.766;8.674;2022-11-14T09:47:21;93810.00;;;6.90
10598;BMP180;5346;48.766;8.674;2022-11-14T09:50:10;93814.00;;;7.00
10598;BMP180;5346;48.766;8.674;2022-11-14T09:52:39;93820.00;;;7.10
10598;BMP180;5346;48.766;8.674;2022-11-14T09:55:19;93817.00;;;7.00
10598;BMP180;5346;48.766;8.674;2022-11-14T09:57:49;93818.00;;;7.20
10598;BMP180;5346;48.766;8.674;2022-11-14T10:00:26;93825.00;;;7.10
10598;BMP180;5346;48.766;8.674;2022-11-14T10:31:34;93809.00;;;7.60
10598;BMP180;5346;48.766;8.674;2022-11-14T10:34:12;93812.00;;;7.60
10598;BMP180;5346;48.766;8.674;2022-11-14T10:42:34;93819.00;;;7.90
10598;BMP180;5346;48.766;8.674;2022-11-14T10:47:50;93810.00;;;8.00
10598;BMP180;5346;48.766;8.674;2022-11-14T10:50:24;93803.00;;;7.90
10598;BMP180;5346;48.766;8.674;2022-11-14T10:53:03;93805.00;;;7.90
10598;BMP180;5346;48.766;8.674;2022-11-14T10:55:37;93804.00;;;7.90
10598;BMP180;5346;48.766;8.674;2022-11-14T10:58:30;93811.00;;;8.10
10598;BMP180;5346;48.766;8.674;2022-11-14T11:01:42;93802.00;;;8.20
10598;BMP180;5346;48.766;8.674;2022-11-14T11:04:31;93807.00;;;8.10
10598;BMP180;5346;48.766;8.674;2022-11-14T11:07:19;93792.00;;;8.10
10598;BMP180;5346;48.766;8.674;2022-11-14T11:10:25;93804.00;;;8.20
10598;BMP180;5346;48.766;8.674;2022-11-14T11:13:13;93805.00;;;8.20
10598;BMP180;5346;48.766;8.674;2022-11-14T11:16:02;93798.00;;;8.40
10598;BMP180;5346;48.766;8.674;2022-11-14T11:18:35;93802.00;;;8.50
10598;BMP180;5346;48.766;8.674;2022-11-14T11:21:20;93800.00;;;8.60
10598;BMP180;5346;48.766;8.674;2022-11-14T11:23:51;93795.00;;;8.60
10598;BMP180;5346;48.766;8.674;2022-11-14T11:26:30;93795.00;;;8.60
10598;BMP180;5346;48.766;8.674;2022-11-14T11:31:57;93793.00;;;8.60
10598;BMP180;5346;48.766;8.674;2022-11-14T11:34:31;93791.00;;;8.70
10598;BMP180;5346;48.766;8.674;2022-11-14T11:40:19;93796.00;;;8.40
10598;BMP180;5346;48.766;8.674;2022-11-14T11:46:13;93796.00;;;8.50
10598;BMP180;5346;48.766;8.674;2022-11-14T11:48:54;93788.00;;;8.50
10598;BMP180;5346;48.766;8.674;2022-11-14T11:51:24;93790.00;;;8.60
10598;BMP180;5346;48.766;8.674;2022-11-14T11:54:17;93790.00;;;8.50
10598;BMP180;5346;48.766;8.674;2022-11-14T11:56:51;93777.00;;;8.70
10598;BMP180;5346;48.766;8.674;2022-11-14T11:59:29;93782.00;;;8.70
10598;BMP180;5346;48.766;8.674;2022-11-14T12:02:24;93783.00;;;9.00
10598;BMP180;5346;48.766;8.674;2022-11-14T12:05:02;93769.00;;;9.30
10598;BMP180;5346;48.766;8.674;2022-11-14T12:10:36;93771.00;;;9.10
10598;BMP180;5346;48.766;8.674;2022-11-14T12:13:42;93774.00;;;9.60
10598;BMP180;5346;48.766;8.674;2022-11-14T12:22:10;93771.00;;;12.50
10598;BMP180;5346;48.766;8.674;2022-11-14T12:28:11;93760.00;;;11.60
10598;BMP180;5346;48.766;8.674;2022-11-14T12:30:46;93762.00;;;11.80
10598;BMP180;5346;48.766;8.674;2022-11-14T12:33:34;93766.00;;;11.10
10598;BMP180;5346;48.766;8.674;2022-11-14T12:36:07;93763.00;;;10.90
10598;BMP180;5346;48.766;8.674;2022-11-14T12:38:52;93744.00;;;11.20
10598;BMP180;5346;48.766;8.674;2022-11-14T12:41:26;93730.00;;;12.80
10598;BMP180;5346;48.766;8.674;2022-11-14T12:44:30;93748.00;;;13.60
10598;BMP180;5346;48.766;8.674;2022-11-14T12:49:58;93766.00;;;11.40
10598;BMP180;5346;48.766;8.674;2022-11-14T12:52:40;93757.00;;;11.00
10598;BMP180;5346;48.766;8.674;2022-11-14T12:58:05;93750.00;;;10.80
10598;BMP180;5346;48.766;8.674;2022-11-14T13:06:26;93763.00;;;10.20
10598;BMP180;5346;48.766;8.674;2022-11-14T13:12:29;93757.00;;;10.10
10598;BMP180;5346;48.766;8.674;2022-11-14T13:15:29;93741.00;;;11.10
10598;BMP180;5346;48.766;8.674;2022-11-14T13:18:26;93746.00;;;10.60
10598;BMP180;5346;48.766;8.674;2022-11-14T13:21:21;93741.00;;;10.60
10598;BMP180;5346;48.766;8.674;2022-11-14T13:24:16;93746.00;;;10.60
10598;BMP180;5346;48.766;8.674;2022-11-14T13:26:45;93736.00;;;10.80
10598;BMP180;5346;48.766;8.674;2022-11-14T13:32:10;93728.00;;;11.50
10598;BMP180;5346;48.766;8.674;2022-11-14T13:34:42;93730.00;;;11.40
10598;BMP180;5346;48.766;8.674;2022-11-14T13:40:12;93738.00;;;11.40
10598;BMP180;5346;48.766;8.674;2022-11-14T13:43:28;93727.00;;;11.80
10598;BMP180;5346;48.766;8.674;2022-11-14T13:46:12;93733.00;;;12.20
10598;BMP180;5346;48.766;8.674;2022-11-14T13:51:51;93717.00;;;11.80
10598;BMP180;5346;48.766;8.674;2022-11-14T13:54:26;93724.00;;;11.90
10598;BMP180;5346;48.766;8.674;2022-11-14T13:57:16;93729.00;;;11.70
10598;BMP180;5346;48.766;8.674;2022-11-14T14:00:04;93728.00;;;11.30
10598;BMP180;5346;48.766;8.674;2022-11-14T14:03:04;93729.00;;;11.10
10598;BMP180;5346;48.766;8.674;2022-11-14T14:06:10;93725.00;;;11.40
10598;BMP180;5346;48.766;8.674;2022-11-14T14:11:48;93724.00;;;12.10
10598;BMP180;5346;48.766;8.674;2022-11-14T14:14:31;93726.00;;;12.30
10598;BMP180;5346;48.766;8.674;2022-11-14T14:23:19;93747.00;;;11.30
10598;BMP180;5346;48.766;8.674;2022-11-14T14:25:55;93750.00;;;11.40
10598;BMP180;5346;48.766;8.674;2022-11-14T14:31:39;93757.00;;;10.80
10598;BMP180;5346;48.766;8.674;2022-11-14T14:34:29;93767.00;;;10.80
10598;BMP180;5346;48.766;8.674;2022-11-14T14:36:57;93754.00;;;10.80
10598;BMP180;5346;48.766;8.674;2022-11-14T14:39:31;93753.00;;;10.70
10598;BMP180;5346;48.766;8.674;2022-11-14T14:41:59;93760.00;;;10.60
10598;BMP180;5346;48.766;8.674;2022-11-14T14:44:37;93754.00;;;10.70
10598;BMP180;5346;48.766;8.674;2022-11-14T14:50:00;93759.00;;;10.40
10598;BMP180;5346;48.766;8.674;2022-11-14T14:52:36;93764.00;;;10.60
10598;BMP180;5346;48.766;8.674;2022-11-14T14:55:06;93766.00;;;10.60
10598;BMP180;5346;48.766;8.674;2022-11-14T14:57:35;93762.00;;;10.60
10598;BMP180;5346;48.766;8.674;2022-11-14T15:00:24;93759.00;;;10.40
10598;BMP180;5346;48.766;8.674;2022-11-14T15:02:56;93760.00;;;10.30
10598;BMP180;5346;48.766;8.674;2022-11-14T15:05:30;93764.00;;;10.30
10598;BMP180;5346;48.766;8.674;2022-11-14T15:08:05;93758.00;;;10.10
10598;BMP180;5346;48.766;8.674;2022-11-14T15:10:44;93772.00;;;9.90
10598;BMP180;5346;48.766;8.674;2022-11-14T15:13:19;93767.00;;;9.70
10598;BMP180;5346;48.766;8.674;2022-11-14T15:15:53;93774.00;;;9.70
10598;BMP180;5346;48.766;8.674;2022-11-14T15:18:28;93778.00;;;9.50
10598;BMP180;5346;48.766;8.674;2022-11-14T15:21:07;93775.00;;;9.30
10598;BMP180;5346;48.766;8.674;2022-11-14T15:23:39;93778.00;;;9.20
10598;BMP180;5346;48.766;8.674;2022-11-14T15:26:17;93765.00;;;9.10
10598;BMP180;5346;48.766;8.674;2022-11-14T15:28:45;93776.00;;;9.00
10598;BMP180;5346;48.766;8.674;2022-11-14T15:31:18;93779.00;;;8.80
10598;BMP180;5346;48.766;8.674;2022-11-14T15:34:02;93780.00;;;9.00
10598;BMP180;5346;48.766;8.674;2022-11-14T15:36:30;93782.00;;;8.80
10598;BMP180;5346;48.766;8.674;2022-11-14T15:44:45;93776.00;;;8.50
10598;BMP180;5346;48.766;8.674;2022-11-14T15:47:22;93775.00;;;8.50
10598;BMP180;5346;48.766;8.674;2022-11-14T15:50:00;93772.00;;;8.50
10598;BMP180;5346;48.766;8.674;2022-11-14T15:52:35;93786.00;;;8.50
10598;BMP180;5346;48.766;8.674;2022-11-14T15:55:17;93789.00;;;8.50
10598;BMP180;5346;48.766;8.674;2022-11-14T15:57:45;93787.00;;;8.50
10598;BMP180;5346;48.766;8.674;2022-11-14T16:00:45;93784.00;;;8.30
10598;BMP180;5346;48.766;8.674;2022-11-14T16:03:18;93788.00;;;8.30
10598;BMP180;5346;48.766;8.674;2022-11-14T16:05:53;93791.00;;;8.10
10598;BMP180;5346;48.766;8.674;2022-11-14T16:08:34;93800.00;;;8.30
10598;BMP180;5346;48.766;8.674;2022-11-14T16:11:08;93796.00;;;8.30
10598;BMP180;5346;48.766;8.674;2022-11-14T16:13:37;93803.00;;;8.30
10598;BMP180;5346;48.766;8.674;2022-11-14T16:16:05;93808.00;;;8.20
10598;BMP180;5346;48.766;8.674;2022-11-14T16:18:39;93808.00;;;8.20
10598;BMP180;5346;48.766;8.674;2022-11-14T16:21:15;93810.00;;;8.20
10598;BMP180;5346;48.766;8.674;2022-11-14T16:23:53;93805.00;;;8.10
10598;BMP180;5346;48.766;8.674;2022-11-14T16:26:20;93806.00;;;8.00
10598;BMP180;5346;48.766;8.674;2022-11-14T16:28:48;93811.00;;;8.10
10598;BMP180;5346;48.766;8.674;2022-11-14T16:31:23;93815.00;;;8.20
10598;BMP180;5346;48.766;8.674;2022-11-14T16:33:50;93818.00;;;8.10
10598;BMP180;5346;48.766;8.674;2022-11-14T16:36:20;93810.00;;;8.10
10598;BMP180;5346;48.766;8.674;2022-11-14T16:38:59;93820.00;;;8.20
10598;BMP180;5346;48.766;8.674;2022-11-14T16:41:28;93813.00;;;8.10
10598;BMP180;5346;48.766;8.674;2022-11-14T16:44:02;93818.00;;;8.20
10598;BMP180;5346;48.766;8.674;2022-11-14T16:46:30;93827.00;;;8.10
10598;BMP180;5346;48.766;8.674;2022-11-14T16:48:58;93820.00;;;8.20
10598;BMP180;5346;48.766;8.674;2022-11-14T16:51:32;93824.00;;;8.10
10598;BMP180;5346;48.766;8.674;2022-11-14T16:54:18;93832.00;;;8.00
10598;BMP180;5346;48.766;8.674;2022-11-14T16:56:54;93828.00;;;8.10
10598;BMP180;5346;48.766;8.674;2022-11-14T16:59:21;93837.00;;;8.10
10598;BMP180;5346;48.766;8.674;2022-11-14T17:01:49;93834.00;;;8.20